createdAt,value
2022-09-07T00:00:49.243Z,16.9
2022-09-07T00:01:55.417Z,16.9
2022-09-07T00:03:01.565Z,16.9
2022-09-07T00:04:07.753Z,16.9
2022-09-07T00:05:13.908Z,16.9
2022-09-07T00:06:20.073Z,16.8
2022-09-07T00:07:26.285Z,16.8
2022-09-07T00:08:31.449Z,16.8
2022-09-07T00:09:36.648Z,16.8
2022-09-07T00:10:41.832Z,16.8
2022-09-07T00:11:47.008Z,16.8
2022-09-07T00:12:53.182Z,16.7
2022-09-07T00:13:59.352Z,16.7
2022-09-07T00:15:05.527Z,16.6
2022-09-07T00:16:11.687Z,16.6
2022-09-07T00:17:17.866Z,16.5
2022-09-07T00:18:24.040Z,16.5
2022-09-07T00:19:30.199Z,16.4
2022-09-07T00:20:36.367Z,16.4
2022-09-07T00:21:42.548Z,16.4
2022-09-07T00:22:48.706Z,16.3
2022-09-07T00:23:54.884Z,16.3
2022-09-07T00:25:01.051Z,16.3
2022-09-07T00:26:06.226Z,16.2
2022-09-07T00:27:12.390Z,16.2
2022-09-07T00:28:18.564Z,16.1
2022-09-07T00:29:24.736Z,16.1
2022-09-07T00:30:30.911Z,16
2022-09-07T00:31:37.066Z,16
2022-09-07T00:32:43.257Z,16
2022-09-07T00:33:48.436Z,15.9
2022-09-07T00:34:53.632Z,15.9
2022-09-07T00:35:58.834Z,15.9
2022-09-07T00:37:04.011Z,15.8
2022-09-07T00:38:09.210Z,15.8
2022-09-07T00:39:14.391Z,15.8
2022-09-07T00:40:20.556Z,15.7
2022-09-07T00:41:26.718Z,15.7
2022-09-07T00:42:32.898Z,15.7
2022-09-07T00:43:39.064Z,15.7
2022-09-07T00:44:45.229Z,15.6
2022-09-07T00:45:51.410Z,15.6
2022-09-07T00:46:57.564Z,15.6
2022-09-07T00:48:03.752Z,15.5
2022-09-07T00:49:09.919Z,15.5
2022-09-07T00:50:16.092Z,15.5
2022-09-07T00:51:22.246Z,15.4
2022-09-07T00:52:28.428Z,15.4
2022-09-07T00:53:33.612Z,15.4
2022-09-07T00:54:39.767Z,15.4
2022-09-07T00:55:45.939Z,15.3
2022-09-07T00:56:52.109Z,15.3
2022-09-07T00:57:58.292Z,15.3
2022-09-07T00:59:04.457Z,15.3
2022-09-07T01:00:10.620Z,15.2
2022-09-07T01:01:15.824Z,15.2
2022-09-07T01:02:20.997Z,15.2
2022-09-07T01:03:26.203Z,15.2
2022-09-07T01:04:31.382Z,15.2
2022-09-07T01:05:37.558Z,15.2
2022-09-07T01:06:43.743Z,15.2
2022-09-07T01:07:49.904Z,15.2
2022-09-07T01:08:56.056Z,15.2
2022-09-07T01:10:02.226Z,15.2
2022-09-07T01:11:08.393Z,15.2
2022-09-07T01:12:14.574Z,15.3
2022-09-07T01:13:20.743Z,15.3
2022-09-07T01:14:26.906Z,15.3
2022-09-07T01:15:33.115Z,15.3
2022-09-07T01:16:39.243Z,15.4
2022-09-07T01:17:45.429Z,15.4
2022-09-07T01:18:50.592Z,15.4
2022-09-07T01:19:56.771Z,15.5
2022-09-07T01:21:02.933Z,15.5
2022-09-07T01:22:09.100Z,15.5
2022-09-07T01:23:15.269Z,15.5
2022-09-07T01:24:21.436Z,15.5
2022-09-07T01:25:27.614Z,15.6
2022-09-07T01:26:32.803Z,15.6
2022-09-07T01:27:38.000Z,15.6
2022-09-07T01:28:44.159Z,15.6
2022-09-07T01:29:50.334Z,15.7
2022-09-07T01:30:56.516Z,15.7
2022-09-07T01:32:02.679Z,15.7
2022-09-07T01:33:08.870Z,15.7
2022-09-07T01:34:15.000Z,15.8
2022-09-07T01:35:21.188Z,15.8
2022-09-07T01:36:27.343Z,15.8
2022-09-07T01:37:33.512Z,15.9
2022-09-07T01:38:39.684Z,15.9
2022-09-07T01:39:45.858Z,15.9
2022-09-07T01:40:52.025Z,15.9
2022-09-07T01:41:57.208Z,16
2022-09-07T01:43:03.383Z,16
2022-09-07T01:44:09.557Z,16
2022-09-07T01:45:15.731Z,16
2022-09-07T01:46:21.899Z,16
2022-09-07T01:47:28.065Z,16
2022-09-07T01:48:34.233Z,16.1
2022-09-07T01:49:39.431Z,16.1
2022-09-07T01:50:44.602Z,16.1
2022-09-07T01:51:49.796Z,16.1
2022-09-07T01:52:54.986Z,16.1
2022-09-07T01:54:01.159Z,16.1
2022-09-07T01:55:07.343Z,16.1
2022-09-07T01:56:13.492Z,16.1
2022-09-07T01:57:19.662Z,16.1
2022-09-07T01:58:25.843Z,16.1
2022-09-07T01:59:32.010Z,16.1
2022-09-07T02:00:38.178Z,16.1
2022-09-07T02:01:44.354Z,16.1
2022-09-07T02:02:50.530Z,16.1
2022-09-07T02:03:56.690Z,16.1
2022-09-07T02:05:02.851Z,16.1
2022-09-07T02:06:09.021Z,16.1
2022-09-07T02:07:14.244Z,16.2
2022-09-07T02:08:20.391Z,16.2
2022-09-07T02:09:26.554Z,16.2
2022-09-07T02:10:32.716Z,16.2
2022-09-07T02:11:38.879Z,16.2
2022-09-07T02:12:45.051Z,16.2
2022-09-07T02:13:51.230Z,16.2
2022-09-07T02:14:56.427Z,16.3
2022-09-07T02:16:01.607Z,16.3
2022-09-07T02:17:06.811Z,16.3
2022-09-07T02:18:11.980Z,16.3
2022-09-07T02:19:18.154Z,16.3
2022-09-07T02:20:24.334Z,16.3
2022-09-07T02:21:30.492Z,16.4
2022-09-07T02:22:36.658Z,16.5
2022-09-07T02:23:42.840Z,16.5
2022-09-07T02:24:49.001Z,16.5
2022-09-07T02:25:55.168Z,16.5
2022-09-07T02:27:01.335Z,16.5
2022-09-07T02:29:13.671Z,16.5
2022-09-07T02:30:19.845Z,16.4
2022-09-07T02:31:26.026Z,16.4
2022-09-07T02:32:31.209Z,16.3
2022-09-07T02:33:37.386Z,16.3
2022-09-07T02:34:43.538Z,16.3
2022-09-07T02:35:49.710Z,16.2
2022-09-07T02:36:55.882Z,16.2
2022-09-07T02:38:02.051Z,16.2
2022-09-07T02:39:08.216Z,16.2
2022-09-07T02:40:14.397Z,16.1
2022-09-07T02:41:19.589Z,16.1
2022-09-07T02:42:24.786Z,16.1
2022-09-07T02:43:29.973Z,16.1
2022-09-07T02:44:35.146Z,16.1
2022-09-07T02:45:41.330Z,16.1
2022-09-07T02:46:47.491Z,16.1
2022-09-07T02:47:53.666Z,16.2
2022-09-07T02:48:59.822Z,16.2
2022-09-07T02:50:05.998Z,16.2
2022-09-07T02:51:12.161Z,16.3
2022-09-07T02:52:18.335Z,16.4
2022-09-07T02:53:24.497Z,16.4
2022-09-07T02:54:30.668Z,16.5
2022-09-07T02:55:36.858Z,16.5
2022-09-07T02:56:43.010Z,16.5
2022-09-07T02:57:49.181Z,16.6
2022-09-07T02:58:54.370Z,16.6
2022-09-07T03:00:00.545Z,16.7
2022-09-07T03:01:06.716Z,16.7
2022-09-07T03:02:12.880Z,16.8
2022-09-07T03:03:19.030Z,16.8
2022-09-07T03:04:25.210Z,16.8
2022-09-07T03:05:31.377Z,16.9
2022-09-07T03:06:36.571Z,16.9
2022-09-07T03:07:41.788Z,16.9
2022-09-07T03:08:47.931Z,16.9
2022-09-07T03:09:54.114Z,16.9
2022-09-07T03:11:00.266Z,17
2022-09-07T03:12:06.431Z,17
2022-09-07T03:13:12.608Z,17
2022-09-07T03:14:18.771Z,17
2022-09-07T03:15:24.990Z,17.1
2022-09-07T03:16:31.119Z,17.1
2022-09-07T03:17:37.294Z,17.1
2022-09-07T03:18:43.461Z,17.1
2022-09-07T03:19:49.631Z,17.1
2022-09-07T03:20:55.799Z,17.2
2022-09-07T03:22:00.995Z,17.2
2022-09-07T03:23:07.160Z,17.3
2022-09-07T03:24:13.320Z,17.2
2022-09-07T03:25:19.498Z,17.2
2022-09-07T03:26:25.659Z,17.2
2022-09-07T03:27:31.828Z,17.3
2022-09-07T03:28:38.011Z,17.3
2022-09-07T03:29:43.197Z,17.4
2022-09-07T03:30:48.384Z,17.5
2022-09-07T03:31:53.584Z,17.6
2022-09-07T03:32:58.779Z,17.6
2022-09-07T03:34:04.929Z,17.7
2022-09-07T03:35:11.104Z,17.7
2022-09-07T03:36:17.272Z,17.7
2022-09-07T03:37:23.446Z,17.7
2022-09-07T03:38:29.614Z,17.7
2022-09-07T03:39:35.771Z,17.7
2022-09-07T03:40:41.934Z,17.7
2022-09-07T03:41:48.121Z,17.7
2022-09-07T03:42:54.276Z,17.7
2022-09-07T03:44:00.452Z,17.7
2022-09-07T03:45:06.628Z,17.7
2022-09-07T03:46:12.818Z,17.7
2022-09-07T03:47:17.995Z,17.8
2022-09-07T03:48:24.149Z,17.8
2022-09-07T03:49:30.328Z,17.9
2022-09-07T03:50:36.495Z,17.9
2022-09-07T03:51:42.650Z,17.9
2022-09-07T03:52:48.854Z,17.9
2022-09-07T03:53:54.989Z,17.8
2022-09-07T03:55:00.203Z,17.8
2022-09-07T03:56:05.368Z,17.8
2022-09-07T03:57:11.536Z,17.8
2022-09-07T03:58:17.707Z,17.8
2022-09-07T03:59:23.876Z,17.8
2022-09-07T04:00:30.060Z,17.8
2022-09-07T04:01:36.230Z,17.8
2022-09-07T04:02:42.394Z,17.8
2022-09-07T04:03:48.581Z,17.8
2022-09-07T04:04:54.727Z,17.7
2022-09-07T04:06:00.909Z,17.7
2022-09-07T04:07:07.062Z,17.7
2022-09-07T04:08:13.245Z,17.7
2022-09-07T04:09:19.402Z,17.7
2022-09-07T04:10:24.596Z,17.7
2022-09-07T04:11:30.770Z,17.7
2022-09-07T04:12:36.932Z,17.7
2022-09-07T04:13:43.088Z,17.7
2022-09-07T04:14:49.299Z,17.7
2022-09-07T04:15:55.448Z,17.7
2022-09-07T04:17:01.621Z,17.7
2022-09-07T04:18:06.818Z,17.7
2022-09-07T04:19:11.990Z,17.7
2022-09-07T04:20:17.190Z,17.7
2022-09-07T04:21:22.379Z,17.7
2022-09-07T04:22:28.541Z,17.7
2022-09-07T04:23:34.720Z,17.7
2022-09-07T04:24:40.871Z,17.7
2022-09-07T04:25:47.052Z,17.7
2022-09-07T04:26:53.211Z,17.7
2022-09-07T04:27:59.389Z,17.7
2022-09-07T04:29:05.569Z,17.7
2022-09-07T04:30:11.733Z,17.7
2022-09-07T04:31:17.892Z,17.7
2022-09-07T04:32:24.060Z,17.7
2022-09-07T04:33:30.256Z,17.7
2022-09-07T04:34:36.405Z,17.7
2022-09-07T04:35:41.587Z,17.7
2022-09-07T04:36:47.757Z,17.7
2022-09-07T04:37:53.948Z,17.7
2022-09-07T04:39:00.096Z,17.7
2022-09-07T04:40:06.278Z,17.7
2022-09-07T04:41:12.444Z,17.7
2022-09-07T04:42:17.630Z,17.7
2022-09-07T04:43:22.834Z,17.7
2022-09-07T04:44:28.021Z,17.7
2022-09-07T04:45:33.214Z,17.7
2022-09-07T04:46:38.402Z,17.7
2022-09-07T04:47:44.554Z,17.7
2022-09-07T04:48:50.740Z,17.7
2022-09-07T04:49:56.893Z,17.7
2022-09-07T04:51:03.066Z,17.7
2022-09-07T04:52:09.236Z,17.8
2022-09-07T04:53:15.408Z,17.8
2022-09-07T04:54:21.578Z,17.7
2022-09-07T04:55:27.755Z,17.7
2022-09-07T04:56:33.926Z,17.7
2022-09-07T04:57:40.086Z,17.7
2022-09-07T04:58:46.260Z,17.7
2022-09-07T04:59:52.427Z,17.7
2022-09-07T05:00:57.627Z,17.7
2022-09-07T05:02:03.779Z,17.7
2022-09-07T05:03:09.967Z,17.7
2022-09-07T05:04:16.130Z,17.7
2022-09-07T05:05:22.289Z,17.7
2022-09-07T05:06:28.463Z,17.7
2022-09-07T05:07:34.642Z,17.7
2022-09-07T05:08:39.824Z,17.7
2022-09-07T05:09:45.003Z,17.7
2022-09-07T05:10:50.209Z,17.7
2022-09-07T05:11:55.391Z,17.7
2022-09-07T05:13:01.557Z,17.7
2022-09-07T05:14:07.722Z,17.7
2022-09-07T05:15:13.894Z,17.7
2022-09-07T05:16:20.072Z,17.6
2022-09-07T05:17:26.247Z,17.6
2022-09-07T05:18:32.424Z,17.6
2022-09-07T05:19:38.586Z,17.5
2022-09-07T05:21:50.916Z,17.4
2022-09-07T05:22:57.104Z,17.4
2022-09-07T05:24:03.250Z,17.3
2022-09-07T05:25:09.417Z,17.3
2022-09-07T05:26:14.612Z,17.3
2022-09-07T05:27:20.775Z,17.2
2022-09-07T05:28:26.964Z,17.2
2022-09-07T05:29:33.128Z,17.2
2022-09-07T05:30:39.287Z,17.2
2022-09-07T05:31:45.455Z,17.2
2022-09-07T05:32:51.638Z,17.2
2022-09-07T05:33:57.825Z,17.2
2022-09-07T05:35:03.007Z,17.2
2022-09-07T05:36:08.174Z,17.1
2022-09-07T05:37:14.341Z,17.1
2022-09-07T05:38:20.527Z,17.1
2022-09-07T05:39:26.691Z,17.1
2022-09-07T05:40:32.866Z,17.1
2022-09-07T05:41:39.038Z,17.1
2022-09-07T05:42:45.207Z,17.1
2022-09-07T05:43:51.394Z,17.1
2022-09-07T05:44:57.538Z,17.2
2022-09-07T05:46:03.729Z,17.2
2022-09-07T05:47:09.894Z,17.3
2022-09-07T05:48:16.053Z,17.3
2022-09-07T05:49:22.242Z,17.3
2022-09-07T05:50:27.404Z,17.3
2022-09-07T05:51:33.576Z,17.3
2022-09-07T05:52:39.749Z,17.3
2022-09-07T05:53:45.927Z,17.4
2022-09-07T05:54:52.091Z,17.4
2022-09-07T05:55:58.247Z,17.5
2022-09-07T05:57:04.414Z,17.5
2022-09-07T05:58:10.585Z,17.6
2022-09-07T05:59:16.752Z,17.6
2022-09-07T06:00:22.936Z,17.6
2022-09-07T06:01:29.084Z,17.6
2022-09-07T06:02:35.280Z,17.6
2022-09-07T06:03:41.439Z,17.6
2022-09-07T06:04:46.629Z,17.6
2022-09-07T06:05:52.801Z,17.6
2022-09-07T06:06:58.967Z,17.6
2022-09-07T06:08:05.136Z,17.6
2022-09-07T06:09:11.306Z,17.6
2022-09-07T06:10:17.462Z,17.6
2022-09-07T06:11:23.641Z,17.6
2022-09-07T06:12:29.791Z,17.6
2022-09-07T06:13:35.971Z,17.7
2022-09-07T06:14:42.141Z,17.7
2022-09-07T06:15:48.322Z,17.7
2022-09-07T06:16:54.483Z,17.7
2022-09-07T06:18:00.643Z,17.7
2022-09-07T06:19:05.847Z,17.7
2022-09-07T06:20:12.005Z,17.7
2022-09-07T06:21:18.173Z,17.6
2022-09-07T06:22:24.345Z,17.6
2022-09-07T06:23:30.518Z,17.5
2022-09-07T06:24:36.694Z,17.5
2022-09-07T06:25:42.860Z,17.5
2022-09-07T06:26:49.027Z,17.6
2022-09-07T06:27:55.191Z,17.7
2022-09-07T06:29:01.361Z,17.8
2022-09-07T06:30:07.530Z,17.9
2022-09-07T06:31:13.695Z,18
2022-09-07T06:32:19.880Z,18.1
2022-09-07T06:33:25.051Z,18.1
2022-09-07T06:34:31.230Z,18
2022-09-07T06:35:37.403Z,18
2022-09-07T06:36:43.565Z,17.9
2022-09-07T06:37:49.729Z,17.9
2022-09-07T06:38:55.920Z,17.9
2022-09-07T06:40:02.073Z,17.9
2022-09-07T06:41:08.250Z,17.9
2022-09-07T06:42:14.413Z,17.9
2022-09-07T06:43:20.586Z,17.9
2022-09-07T06:44:26.749Z,17.9
2022-09-07T06:45:32.918Z,17.9
2022-09-07T06:46:39.097Z,17.9
2022-09-07T06:47:44.256Z,18
2022-09-07T06:48:50.430Z,18
2022-09-07T06:49:56.610Z,18.1
2022-09-07T06:51:02.794Z,18.3
2022-09-07T06:52:08.955Z,18.4
2022-09-07T06:53:15.124Z,18.5
2022-09-07T06:55:27.457Z,18.5
2022-09-07T06:56:33.629Z,18.5
2022-09-07T06:57:39.795Z,18.5
2022-09-07T06:58:45.964Z,18.4
2022-09-07T06:59:52.133Z,18.4
2022-09-07T07:00:58.294Z,18.5
2022-09-07T07:02:03.490Z,18.5
2022-09-07T07:03:09.657Z,18.5
2022-09-07T07:04:15.823Z,18.5
2022-09-07T07:05:22.002Z,18.4
2022-09-07T07:06:28.160Z,18.3
2022-09-07T07:07:34.341Z,18.3
2022-09-07T07:08:40.500Z,18.4
2022-09-07T07:09:46.679Z,18.7
2022-09-07T07:10:52.845Z,19.2
2022-09-07T07:11:59.019Z,19.4
2022-09-07T07:13:05.207Z,19.9
2022-09-07T07:14:11.356Z,20.4
2022-09-07T07:15:17.526Z,20.8
2022-09-07T07:16:22.704Z,20.9
2022-09-07T07:17:28.895Z,20.6
2022-09-07T07:18:35.046Z,20.4
2022-09-07T07:19:41.201Z,21
2022-09-07T07:20:47.380Z,21.3
2022-09-07T07:21:53.553Z,21.6
2022-09-07T07:22:59.720Z,21.5
2022-09-07T07:24:05.898Z,21.4
2022-09-07T07:25:12.059Z,21.4
2022-09-07T07:26:18.221Z,21.4
2022-09-07T07:27:24.396Z,21.7
2022-09-07T07:28:30.573Z,21.9
2022-09-07T07:29:36.735Z,22.5
2022-09-07T07:30:41.908Z,22.3
2022-09-07T07:31:48.082Z,22.8
2022-09-07T07:32:54.248Z,22.7
2022-09-07T07:34:00.421Z,22.1
2022-09-07T07:35:06.607Z,21.7
2022-09-07T07:36:12.785Z,21.3
2022-09-07T07:37:18.931Z,21.2
2022-09-07T07:38:25.128Z,21
2022-09-07T07:39:31.281Z,20.8
2022-09-07T07:40:37.460Z,20.5
2022-09-07T07:41:43.612Z,20.5
2022-09-07T07:43:55.952Z,20.8
2022-09-07T07:45:01.142Z,20.7
2022-09-07T07:46:07.315Z,20.7
2022-09-07T07:47:13.501Z,20.7
2022-09-07T07:48:19.649Z,20.7
2022-09-07T07:49:25.832Z,20.7
2022-09-07T07:50:31.993Z,20.6
2022-09-07T07:51:38.164Z,20.6
2022-09-07T07:52:44.313Z,20.5
2022-09-07T07:53:50.498Z,20.5
2022-09-07T07:54:56.653Z,20.5
2022-09-07T07:56:02.844Z,20.5
2022-09-07T07:57:09.027Z,20.5
2022-09-07T07:58:15.163Z,20.5
2022-09-07T07:59:20.362Z,20.5
2022-09-07T08:00:26.594Z,20.5
2022-09-07T08:01:32.691Z,20.6
2022-09-07T08:02:38.893Z,20.6
2022-09-07T08:03:45.037Z,20.7
2022-09-07T08:04:51.213Z,20.7
2022-09-07T08:05:57.377Z,20.8
2022-09-07T08:07:03.552Z,20.8
2022-09-07T08:08:09.715Z,20.9
2022-09-07T08:09:15.874Z,20.9
2022-09-07T08:10:22.058Z,20.9
2022-09-07T08:11:28.226Z,21
2022-09-07T08:12:34.406Z,21
2022-09-07T08:13:39.596Z,21.1
2022-09-07T08:14:45.748Z,21.2
2022-09-07T08:15:51.928Z,21.4
2022-09-07T08:16:58.069Z,21.6
2022-09-07T08:18:04.269Z,21.7
2022-09-07T08:19:10.459Z,21.7
2022-09-07T08:20:16.602Z,22.5
2022-09-07T08:21:22.781Z,23.5
2022-09-07T08:22:28.944Z,24.2
2022-09-07T08:23:34.125Z,23.8
2022-09-07T08:24:40.285Z,23.6
2022-09-07T08:25:46.463Z,23.7
2022-09-07T08:26:52.648Z,24.1
2022-09-07T08:27:58.787Z,24
2022-09-07T08:29:04.968Z,24.5
2022-09-07T08:30:11.138Z,24.2
2022-09-07T08:31:17.326Z,24
2022-09-07T08:32:23.482Z,24.1
2022-09-07T08:33:29.651Z,24.5
2022-09-07T08:34:35.827Z,24.5
2022-09-07T08:35:42.022Z,24.6
2022-09-07T08:36:48.160Z,24.6
2022-09-07T08:37:53.351Z,25
2022-09-07T08:38:59.521Z,25.7
2022-09-07T08:40:05.687Z,26.4
2022-09-07T08:41:11.853Z,26
2022-09-07T08:42:18.018Z,25.7
2022-09-07T08:43:24.201Z,25.1
2022-09-07T08:44:30.413Z,24.7
2022-09-07T08:45:36.528Z,24.3
2022-09-07T08:46:42.690Z,24.8
2022-09-07T08:47:48.871Z,24.5
2022-09-07T08:50:01.200Z,25.2
2022-09-07T08:51:07.372Z,25.5
2022-09-07T08:52:12.549Z,25.9
2022-09-07T08:53:18.734Z,26.1
2022-09-07T08:54:24.903Z,26.1
2022-09-07T08:55:31.078Z,26.1
2022-09-07T08:56:37.235Z,26.3
2022-09-07T08:57:43.464Z,26.6
2022-09-07T08:58:49.573Z,27
2022-09-07T08:59:55.740Z,27.3
2022-09-07T09:01:01.941Z,27.7
2022-09-07T09:02:08.100Z,28.1
2022-09-07T09:03:14.273Z,28.4
2022-09-07T09:04:20.474Z,28.6
2022-09-07T09:05:26.607Z,28.5
2022-09-07T09:06:31.794Z,28.6
2022-09-07T09:07:38.012Z,28.7
2022-09-07T09:08:44.133Z,28.6
2022-09-07T09:09:50.348Z,28.5
2022-09-07T09:10:56.461Z,28.8
2022-09-07T09:12:02.634Z,28.8
2022-09-07T09:13:08.830Z,29
2022-09-07T09:14:15.024Z,29.4
2022-09-07T09:15:21.142Z,29.6
2022-09-07T09:16:27.387Z,29.8
2022-09-07T09:17:33.483Z,30.2
2022-09-07T09:18:39.644Z,30
2022-09-07T09:19:45.831Z,29.7
2022-09-07T09:20:51.023Z,29.6
2022-09-07T09:21:57.182Z,29.5
2022-09-07T09:23:03.383Z,29.3
2022-09-07T09:24:09.514Z,29.5
2022-09-07T09:25:15.684Z,29.9
2022-09-07T09:26:21.863Z,30.3
2022-09-07T09:27:28.046Z,30.5
2022-09-07T09:28:34.204Z,30.6
2022-09-07T09:29:40.410Z,31.2
2022-09-07T09:30:46.582Z,30.8
2022-09-07T09:31:52.717Z,30.1
2022-09-07T09:32:58.895Z,30.4
2022-09-07T09:34:05.060Z,30.9
2022-09-07T09:35:10.237Z,31.1
2022-09-07T09:36:16.415Z,31.2
2022-09-07T09:37:22.569Z,31.6
2022-09-07T09:38:28.750Z,31.7
2022-09-07T09:39:34.930Z,31.5
2022-09-07T09:40:41.133Z,31.8
2022-09-07T09:41:47.267Z,32.1
2022-09-07T09:42:53.460Z,32
2022-09-07T09:43:59.596Z,32.2
2022-09-07T09:45:05.775Z,31.8
2022-09-07T09:46:11.940Z,32.1
2022-09-07T09:47:18.106Z,32.6
2022-09-07T09:48:24.283Z,33
2022-09-07T09:49:29.492Z,33.1
2022-09-07T09:50:35.637Z,33.4
2022-09-07T09:51:41.825Z,33.5
2022-09-07T09:52:47.977Z,33.6
2022-09-07T09:53:54.153Z,33.3
2022-09-07T09:55:00.351Z,33.2
2022-09-07T09:56:06.517Z,33.4
2022-09-07T09:57:12.665Z,33.1
2022-09-07T09:58:18.837Z,32.5
2022-09-07T09:59:25.015Z,32.4
2022-09-07T10:00:31.174Z,32.9
2022-09-07T10:01:37.358Z,33.1
2022-09-07T10:02:43.512Z,33.5
2022-09-07T10:03:48.708Z,33.4
2022-09-07T10:04:54.867Z,33.7
2022-09-07T10:06:01.104Z,34
2022-09-07T10:07:07.262Z,34
2022-09-07T10:09:19.593Z,33.8
2022-09-07T10:10:25.712Z,33.5
2022-09-07T10:11:31.894Z,33
2022-09-07T10:12:38.062Z,32.2
2022-09-07T10:13:44.231Z,31.6
2022-09-07T10:14:50.402Z,32
2022-09-07T10:15:56.619Z,32.2
2022-09-07T10:17:02.771Z,31.8
2022-09-07T10:18:07.984Z,31.2
2022-09-07T10:19:14.150Z,31.7
2022-09-07T10:20:20.264Z,32.1
2022-09-07T10:21:26.484Z,32.2
2022-09-07T10:22:32.612Z,32.6
2022-09-07T10:23:38.790Z,32.3
2022-09-07T10:24:44.954Z,32.4
2022-09-07T10:25:51.191Z,32.4
2022-09-07T10:26:57.317Z,32.5
2022-09-07T10:28:03.481Z,31.9
2022-09-07T10:29:09.629Z,32
2022-09-07T10:30:15.818Z,32.4
2022-09-07T10:31:21.976Z,32.6
2022-09-07T10:32:27.211Z,33
2022-09-07T10:33:33.356Z,33.6
2022-09-07T10:34:39.536Z,33.9
2022-09-07T10:35:45.690Z,33.5
2022-09-07T10:36:51.869Z,33.7
2022-09-07T10:37:58.043Z,33.6
2022-09-07T10:39:04.202Z,33.7
2022-09-07T10:40:10.351Z,33.6
2022-09-07T10:41:16.567Z,33.8
2022-09-07T10:42:22.730Z,33.9
2022-09-07T10:43:28.911Z,33.9
2022-09-07T10:44:35.065Z,34.2
2022-09-07T10:45:41.243Z,33.5
2022-09-07T10:46:46.391Z,34.1
2022-09-07T10:47:52.577Z,34.9
2022-09-07T10:48:58.751Z,35.2
2022-09-07T10:50:04.907Z,34.8
2022-09-07T10:51:11.088Z,34.9
2022-09-07T10:52:17.307Z,34.1
2022-09-07T10:53:23.424Z,33
2022-09-07T10:54:29.596Z,32.3
2022-09-07T10:55:35.790Z,32.4
2022-09-07T10:56:41.928Z,32.9
2022-09-07T10:57:48.153Z,33.1
2022-09-07T10:58:54.269Z,32.8
2022-09-07T11:00:00.445Z,32.9
2022-09-07T11:01:05.635Z,33.1
2022-09-07T11:02:11.817Z,33.6
2022-09-07T11:03:17.957Z,34.4
2022-09-07T11:04:24.141Z,34.9
2022-09-07T11:05:30.322Z,35.3
2022-09-07T11:06:36.543Z,35.1
2022-09-07T11:07:42.708Z,34.9
2022-09-07T11:08:48.828Z,35.1
2022-09-07T11:09:54.984Z,35
2022-09-07T11:11:01.158Z,35.2
2022-09-07T11:12:07.334Z,34.6
2022-09-07T11:13:13.518Z,33.9
2022-09-07T11:14:19.672Z,33.6
2022-09-07T11:15:24.892Z,34.3
2022-09-07T11:16:31.031Z,33.5
2022-09-07T11:17:37.202Z,32.9
2022-09-07T11:18:43.372Z,32.1
2022-09-07T11:19:49.554Z,31.2
2022-09-07T11:20:55.725Z,30.6
2022-09-07T11:22:01.966Z,30.5
2022-09-07T11:23:08.103Z,30.1
2022-09-07T11:24:14.234Z,30.3
2022-09-07T11:25:20.391Z,30.3
2022-09-07T11:26:26.563Z,30.5
2022-09-07T11:27:32.729Z,30.7
2022-09-07T11:28:38.907Z,29.7
2022-09-07T11:29:45.080Z,29.6
2022-09-07T11:30:50.246Z,29.3
2022-09-07T11:31:56.428Z,29.3
2022-09-07T11:33:02.626Z,29.5
2022-09-07T11:34:08.800Z,29.8
2022-09-07T11:35:14.932Z,30.5
2022-09-07T11:36:21.161Z,30.7
2022-09-07T11:37:27.347Z,30.7
2022-09-07T11:38:33.447Z,31.2
2022-09-07T11:39:39.653Z,31.6
2022-09-07T11:40:45.797Z,31.6
2022-09-07T11:41:52.020Z,31.4
2022-09-07T11:42:58.144Z,31.3
2022-09-07T11:44:04.329Z,30.9
2022-09-07T11:45:09.492Z,31
2022-09-07T11:46:15.674Z,31.7
2022-09-07T11:47:21.874Z,32.1
2022-09-07T11:48:28.031Z,32.1
2022-09-07T11:49:34.161Z,31.9
2022-09-07T11:50:40.364Z,32.1
2022-09-07T11:51:46.516Z,31.7
2022-09-07T11:52:52.679Z,31.6
2022-09-07T11:53:58.837Z,31.3
2022-09-07T11:55:05.038Z,31.5
2022-09-07T11:56:11.187Z,31.2
2022-09-07T11:57:17.378Z,31.1
2022-09-07T11:58:23.532Z,31.1
2022-09-07T11:59:28.727Z,31.4
2022-09-07T12:00:34.879Z,32.1
2022-09-07T12:01:41.048Z,32.7
2022-09-07T12:02:47.219Z,32.6
2022-09-07T12:03:53.394Z,32.4
2022-09-07T12:04:58.592Z,31.6
2022-09-07T12:06:04.756Z,31.7
2022-09-07T12:07:10.929Z,31.6
2022-09-07T12:08:17.153Z,31.7
2022-09-07T12:09:23.276Z,31.7
2022-09-07T12:10:29.435Z,31.7
2022-09-07T12:11:35.634Z,31.6
2022-09-07T12:12:41.808Z,31.8
2022-09-07T12:13:47.966Z,32.1
2022-09-07T12:14:54.131Z,31.9
2022-09-07T12:16:00.331Z,32.3
2022-09-07T12:18:12.656Z,33.1
2022-09-07T12:19:17.857Z,33.4
2022-09-07T12:20:24.001Z,33.2
2022-09-07T12:21:30.159Z,33.3
2022-09-07T12:22:36.343Z,33
2022-09-07T12:23:42.527Z,32.8
2022-09-07T12:24:48.703Z,32.8
2022-09-07T12:25:54.852Z,32.5
2022-09-07T12:27:01.033Z,32.4
2022-09-07T12:28:07.179Z,32
2022-09-07T12:29:13.363Z,31.9
2022-09-07T12:30:19.543Z,32
2022-09-07T12:31:25.700Z,32
2022-09-07T12:32:31.898Z,31.7
2022-09-07T12:33:37.071Z,31.5
2022-09-07T12:34:43.245Z,31.5
2022-09-07T12:35:49.395Z,31.5
2022-09-07T12:36:55.554Z,31.6
2022-09-07T12:38:01.733Z,32.2
2022-09-07T12:39:07.908Z,33.1
2022-09-07T12:40:14.076Z,34.4
2022-09-07T12:41:20.241Z,35.1
2022-09-07T12:42:26.417Z,35.3
2022-09-07T12:43:32.630Z,34.3
2022-09-07T12:44:38.758Z,33.5
2022-09-07T12:45:44.928Z,33.6
2022-09-07T12:46:51.094Z,33.9
2022-09-07T12:47:56.316Z,34.6
2022-09-07T12:49:02.516Z,35.3
2022-09-07T12:50:08.620Z,34.3
2022-09-07T12:51:14.803Z,34.6
2022-09-07T12:52:20.958Z,35.1
2022-09-07T12:53:27.158Z,34.9
2022-09-07T12:54:33.299Z,34.5
2022-09-07T12:55:39.476Z,33.4
2022-09-07T12:56:45.640Z,32.7
2022-09-07T12:57:51.808Z,32.6
2022-09-07T12:58:58.003Z,32.1
2022-09-07T13:00:04.142Z,32.1
2022-09-07T13:01:10.323Z,31.8
2022-09-07T13:02:15.511Z,31.1
2022-09-07T13:03:21.684Z,30.4
2022-09-07T13:04:27.832Z,30
2022-09-07T13:05:34.036Z,30
2022-09-07T13:06:40.181Z,30.6
2022-09-07T13:07:46.357Z,31.2
2022-09-07T13:08:52.520Z,31.5
2022-09-07T13:09:58.743Z,31.7
2022-09-07T13:11:04.857Z,32.2
2022-09-07T13:12:11.062Z,33.3
2022-09-07T13:13:17.200Z,34
2022-09-07T13:14:23.386Z,33.6
2022-09-07T13:15:29.541Z,33.8
2022-09-07T13:16:34.747Z,33.7
2022-09-07T13:17:40.910Z,33.4
2022-09-07T13:18:47.097Z,32.9
2022-09-07T13:19:53.342Z,32.3
2022-09-07T13:20:59.421Z,31.9
2022-09-07T13:22:05.611Z,31.6
2022-09-07T13:23:11.771Z,31.3
2022-09-07T13:24:17.982Z,30.8
2022-09-07T13:25:24.131Z,30.2
2022-09-07T13:26:30.277Z,30.1
2022-09-07T13:27:36.452Z,29.9
2022-09-07T13:28:42.617Z,29.7
2022-09-07T13:29:48.805Z,29.7
2022-09-07T13:30:53.968Z,29.9
2022-09-07T13:32:00.176Z,29.7
2022-09-07T13:33:06.316Z,29.6
2022-09-07T13:34:12.498Z,29.4
2022-09-07T13:35:18.624Z,29
2022-09-07T13:36:24.826Z,28.8
2022-09-07T13:37:30.981Z,28.6
2022-09-07T13:38:37.156Z,28.4
2022-09-07T13:39:43.319Z,28.3
2022-09-07T13:40:49.493Z,28
2022-09-07T13:41:55.686Z,27.6
2022-09-07T13:43:01.835Z,27.4
2022-09-07T13:44:08.047Z,27.6
2022-09-07T13:45:13.208Z,27.5
2022-09-07T13:46:19.369Z,27.6
2022-09-07T13:47:25.535Z,27.8
2022-09-07T13:48:31.718Z,27.9
2022-09-07T13:49:37.858Z,28.1
2022-09-07T13:50:44.046Z,27.7
2022-09-07T13:51:50.201Z,27.4
2022-09-07T13:52:56.363Z,27.1
2022-09-07T13:54:02.549Z,27.1
2022-09-07T13:55:08.723Z,26.9
2022-09-07T13:56:14.877Z,26.7
2022-09-07T13:57:21.041Z,26.5
2022-09-07T13:58:27.234Z,26.3
2022-09-07T13:59:32.439Z,26.1
2022-09-07T14:00:38.571Z,25.9
2022-09-07T14:01:44.745Z,25.7
2022-09-07T14:02:50.918Z,25.5
2022-09-07T14:03:57.098Z,25.3
2022-09-07T14:05:03.257Z,25.1
2022-09-07T14:06:09.423Z,25
2022-09-07T14:07:15.598Z,25
2022-09-07T14:08:21.755Z,24.9
2022-09-07T14:09:27.953Z,24.9
2022-09-07T14:10:34.094Z,25.2
2022-09-07T14:11:40.259Z,25.4
2022-09-07T14:12:46.444Z,25.5
2022-09-07T14:13:51.611Z,25.6
2022-09-07T14:14:57.786Z,26
2022-09-07T14:16:03.958Z,26.1
2022-09-07T14:17:10.134Z,26.2
2022-09-07T14:18:16.307Z,26.3
2022-09-07T14:19:22.515Z,26.1
2022-09-07T14:20:28.630Z,25.8
2022-09-07T14:21:34.815Z,25.5
2022-09-07T14:22:40.987Z,25.5
2022-09-07T14:23:47.133Z,25.3
2022-09-07T14:24:53.308Z,25.3
2022-09-07T14:25:59.496Z,25.4
2022-09-07T14:27:05.703Z,25.2
2022-09-07T14:28:10.853Z,25.1
2022-09-07T14:29:17.017Z,25.1
2022-09-07T14:30:23.201Z,24.9
2022-09-07T14:31:29.342Z,24.8
2022-09-07T14:32:35.509Z,24.7
2022-09-07T14:33:41.684Z,24.7
2022-09-07T14:34:47.862Z,24.7
2022-09-07T14:35:54.057Z,24.6
2022-09-07T14:37:00.186Z,24.7
2022-09-07T14:38:06.358Z,24.6
2022-09-07T14:39:12.531Z,24.6
2022-09-07T14:40:18.692Z,24.7
2022-09-07T14:41:24.936Z,25.1
2022-09-07T14:42:30.061Z,25.4
2022-09-07T14:43:36.236Z,25.5
2022-09-07T14:44:42.399Z,25.6
2022-09-07T14:45:48.566Z,25.7
2022-09-07T14:46:54.739Z,25.8
2022-09-07T14:48:00.906Z,25.7
2022-09-07T14:49:07.075Z,25.8
2022-09-07T14:50:13.250Z,25.9